sensor_id;sensor_type;location;lat;lon;timestamp;P1;durP1;ratioP1;P2;durP2;ratioP2
67965;SDS011;54749;47.850;9.002;2022-10-16T00:01:23;9.02;;;3.20;;
67965;SDS011;54749;47.850;9.002;2022-10-16T00:03:51;6.38;;;3.15;;
67965;SDS011;54749;47.850;9.002;2022-10-16T00:06:19;7.72;;;3.42;;
67965;SDS011;54749;47.850;9.002;2022-10-16T00:08:47;8.30;;;3.60;;
67965;SDS011;54749;47.850;9.002;2022-10-16T00:11:19;9.10;;;4.03;;
67965;SDS011;54749;47.850;9.002;2022-10-16T00:13:46;7.50;;;4.10;;
67965;SDS011;54749;47.850;9.002;2022-10-16T00:16:14;9.07;;;3.97;;
67965;SDS011;54749;47.850;9.002;2022-10-16T00:18:42;11.27;;;5.00;;
67965;SDS011;54749;47.850;9.002;2022-10-16T00:21:13;10.82;;;4.22;;
67965;SDS011;54749;47.850;9.002;2022-10-16T00:23:42;9.33;;;4.40;;
67965;SDS011;54749;47.850;9.002;2022-10-16T00:26:11;10.60;;;4.28;;
67965;SDS011;54749;47.850;9.002;2022-10-16T00:28:39;14.07;;;5.53;;
67965;SDS011;54749;47.850;9.002;2022-10-16T00:31:07;11.20;;;5.20;;
67965;SDS011;54749;47.850;9.002;2022-10-16T00:33:37;15.23;;;5.43;;
67965;SDS011;54749;47.850;9.002;2022-10-16T00:36:06;15.40;;;6.33;;
67965;SDS011;54749;47.850;9.002;2022-10-16T00:38:34;11.70;;;5.45;;
67965;SDS011;54749;47.850;9.002;2022-10-16T00:41:01;11.75;;;4.63;;
67965;SDS011;54749;47.850;9.002;2022-10-16T00:43:41;11.73;;;4.80;;
67965;SDS011;54749;47.850;9.002;2022-10-16T00:48:42;13.13;;;5.37;;
67965;SDS011;54749;47.850;9.002;2022-10-16T00:51:14;9.15;;;4.40;;
67965;SDS011;54749;47.850;9.002;2022-10-16T00:53:41;9.45;;;4.38;;
67965;SDS011;54749;47.850;9.002;2022-10-16T00:56:08;8.32;;;4.25;;
67965;SDS011;54749;47.850;9.002;2022-10-16T00:58:35;8.57;;;3.80;;
67965;SDS011;54749;47.850;9.002;2022-10-16T01:01:02;6.90;;;4.37;;
67965;SDS011;54749;47.850;9.002;2022-10-16T01:03:30;11.00;;;4.82;;
67965;SDS011;54749;47.850;9.002;2022-10-16T01:06:02;8.88;;;4.80;;
67965;SDS011;54749;47.850;9.002;2022-10-16T01:14:48;7.90;;;4.40;;
67965;SDS011;54749;47.850;9.002;2022-10-16T01:17:28;11.13;;;5.22;;
67965;SDS011;54749;47.850;9.002;2022-10-16T01:22:58;8.50;;;4.78;;
67965;SDS011;54749;47.850;9.002;2022-10-16T01:25:31;7.82;;;4.70;;
67965;SDS011;54749;47.850;9.002;2022-10-16T01:28:08;7.20;;;3.90;;
67965;SDS011;54749;47.850;9.002;2022-10-16T01:30:38;6.53;;;3.42;;
67965;SDS011;54749;47.850;9.002;2022-10-16T01:33:10;16.40;;;3.60;;
67965;SDS011;54749;47.850;9.002;2022-10-16T01:35:44;8.40;;;3.28;;
67965;SDS011;54749;47.850;9.002;2022-10-16T01:38:56;8.40;;;3.67;;
67965;SDS011;54749;47.850;9.002;2022-10-16T01:41:09;7.17;;;3.27;;
67965;SDS011;54749;47.850;9.002;2022-10-16T01:43:57;7.82;;;2.95;;
67965;SDS011;54749;47.850;9.002;2022-10-16T01:46:31;7.70;;;3.33;;
67965;SDS011;54749;47.850;9.002;2022-10-16T01:49:00;9.65;;;3.80;;
67965;SDS011;54749;47.850;9.002;2022-10-16T01:51:29;10.02;;;4.85;;
67965;SDS011;54749;47.850;9.002;2022-10-16T01:53:56;10.17;;;3.90;;
67965;SDS011;54749;47.850;9.002;2022-10-16T01:56:26;5.97;;;3.03;;
67965;SDS011;54749;47.850;9.002;2022-10-16T01:58:57;9.50;;;3.20;;
67965;SDS011;54749;47.850;9.002;2022-10-16T02:01:28;7.38;;;3.17;;
67965;SDS011;54749;47.850;9.002;2022-10-16T02:03:58;8.13;;;3.03;;
67965;SDS011;54749;47.850;9.002;2022-10-16T02:06:29;5.53;;;2.73;;
67965;SDS011;54749;47.850;9.002;2022-10-16T02:08:56;7.47;;;2.80;;
67965;SDS011;54749;47.850;9.002;2022-10-16T02:11:24;4.70;;;2.40;;
67965;SDS011;54749;47.850;9.002;2022-10-16T02:13:53;5.53;;;2.83;;
67965;SDS011;54749;47.850;9.002;2022-10-16T02:16:32;7.85;;;3.60;;
67965;SDS011;54749;47.850;9.002;2022-10-16T02:19:04;7.57;;;3.63;;
67965;SDS011;54749;47.850;9.002;2022-10-16T02:24:18;7.30;;;3.67;;
67965;SDS011;54749;47.850;9.002;2022-10-16T02:29:37;11.20;;;3.70;;
67965;SDS011;54749;47.850;9.002;2022-10-16T02:32:07;10.37;;;3.70;;
67965;SDS011;54749;47.850;9.002;2022-10-16T02:34:37;8.50;;;3.70;;
67965;SDS011;54749;47.850;9.002;2022-10-16T02:37:06;10.23;;;5.10;;
67965;SDS011;54749;47.850;9.002;2022-10-16T02:39:33;12.50;;;5.07;;
67965;SDS011;54749;47.850;9.002;2022-10-16T02:42:01;12.25;;;4.30;;
67965;SDS011;54749;47.850;9.002;2022-10-16T02:44:28;7.37;;;4.03;;
67965;SDS011;54749;47.850;9.002;2022-10-16T02:46:54;9.93;;;3.20;;
67965;SDS011;54749;47.850;9.002;2022-10-16T02:49:21;7.10;;;2.78;;
67965;SDS011;54749;47.850;9.002;2022-10-16T02:51:48;6.35;;;2.97;;
67965;SDS011;54749;47.850;9.002;2022-10-16T02:54:15;8.27;;;2.88;;
67965;SDS011;54749;47.850;9.002;2022-10-16T02:56:42;6.60;;;3.30;;
67965;SDS011;54749;47.850;9.002;2022-10-16T02:59:08;12.43;;;4.10;;
67965;SDS011;54749;47.850;9.002;2022-10-16T03:01:35;9.38;;;4.88;;
67965;SDS011;54749;47.850;9.002;2022-10-16T03:04:02;12.02;;;4.00;;
67965;SDS011;54749;47.850;9.002;2022-10-16T03:06:29;8.98;;;4.03;;
67965;SDS011;54749;47.850;9.002;2022-10-16T03:08:56;8.43;;;3.60;;
67965;SDS011;54749;47.850;9.002;2022-10-16T03:11:23;6.93;;;3.38;;
67965;SDS011;54749;47.850;9.002;2022-10-16T03:13:50;7.93;;;3.25;;
67965;SDS011;54749;47.850;9.002;2022-10-16T03:16:16;7.85;;;3.55;;
67965;SDS011;54749;47.850;9.002;2022-10-16T03:18:43;11.30;;;4.00;;
67965;SDS011;54749;47.850;9.002;2022-10-16T03:21:15;10.43;;;5.60;;
67965;SDS011;54749;47.850;9.002;2022-10-16T03:23:42;15.43;;;4.70;;
67965;SDS011;54749;47.850;9.002;2022-10-16T03:26:08;8.15;;;4.10;;
67965;SDS011;54749;47.850;9.002;2022-10-16T03:28:35;9.55;;;3.60;;
67965;SDS011;54749;47.850;9.002;2022-10-16T03:31:02;6.10;;;2.97;;
67965;SDS011;54749;47.850;9.002;2022-10-16T03:33:29;7.17;;;3.10;;
67965;SDS011;54749;47.850;9.002;2022-10-16T03:35:56;6.70;;;3.03;;
67965;SDS011;54749;47.850;9.002;2022-10-16T03:38:22;5.25;;;2.45;;
67965;SDS011;54749;47.850;9.002;2022-10-16T03:40:49;6.97;;;2.85;;
67965;SDS011;54749;47.850;9.002;2022-10-16T03:43:16;6.15;;;2.70;;
67965;SDS011;54749;47.850;9.002;2022-10-16T03:45:43;5.57;;;2.37;;
67965;SDS011;54749;47.850;9.002;2022-10-16T03:48:10;5.80;;;2.90;;
67965;SDS011;54749;47.850;9.002;2022-10-16T03:50:36;5.78;;;2.22;;
67965;SDS011;54749;47.850;9.002;2022-10-16T03:53:03;6.30;;;2.40;;
67965;SDS011;54749;47.850;9.002;2022-10-16T03:55:30;5.28;;;2.50;;
67965;SDS011;54749;47.850;9.002;2022-10-16T03:57:57;6.63;;;2.90;;
67965;SDS011;54749;47.850;9.002;2022-10-16T04:00:24;6.95;;;2.58;;
67965;SDS011;54749;47.850;9.002;2022-10-16T04:02:51;4.88;;;2.20;;
67965;SDS011;54749;47.850;9.002;2022-10-16T04:05:17;6.22;;;2.50;;
67965;SDS011;54749;47.850;9.002;2022-10-16T04:07:44;6.90;;;2.75;;
67965;SDS011;54749;47.850;9.002;2022-10-16T04:10:11;8.27;;;2.27;;
67965;SDS011;54749;47.850;9.002;2022-10-16T04:12:38;5.15;;;2.47;;
67965;SDS011;54749;47.850;9.002;2022-10-16T04:15:05;5.60;;;2.90;;
67965;SDS011;54749;47.850;9.002;2022-10-16T04:17:32;8.55;;;3.65;;
67965;SDS011;54749;47.850;9.002;2022-10-16T04:19:59;8.10;;;3.75;;
67965;SDS011;54749;47.850;9.002;2022-10-16T04:22:26;9.57;;;4.40;;
67965;SDS011;54749;47.850;9.002;2022-10-16T04:24:53;9.43;;;4.22;;
67965;SDS011;54749;47.850;9.002;2022-10-16T04:27:20;8.70;;;4.03;;
67965;SDS011;54749;47.850;9.002;2022-10-16T04:29:47;8.45;;;4.10;;
67965;SDS011;54749;47.850;9.002;2022-10-16T04:32:14;8.13;;;3.78;;
67965;SDS011;54749;47.850;9.002;2022-10-16T04:34:40;9.80;;;3.63;;
67965;SDS011;54749;47.850;9.002;2022-10-16T04:37:07;6.95;;;3.42;;
67965;SDS011;54749;47.850;9.002;2022-10-16T04:39:34;5.68;;;3.00;;
67965;SDS011;54749;47.850;9.002;2022-10-16T04:42:01;5.90;;;2.92;;
67965;SDS011;54749;47.850;9.002;2022-10-16T04:44:29;9.15;;;3.60;;
67965;SDS011;54749;47.850;9.002;2022-10-16T04:46:56;6.70;;;2.90;;
67965;SDS011;54749;47.850;9.002;2022-10-16T04:49:22;6.47;;;2.83;;
67965;SDS011;54749;47.850;9.002;2022-10-16T04:51:49;8.15;;;3.85;;
67965;SDS011;54749;47.850;9.002;2022-10-16T04:54:16;10.77;;;4.60;;
67965;SDS011;54749;47.850;9.002;2022-10-16T04:56:43;10.57;;;4.65;;
67965;SDS011;54749;47.850;9.002;2022-10-16T04:59:14;8.37;;;3.90;;
67965;SDS011;54749;47.850;9.002;2022-10-16T05:01:41;8.52;;;4.10;;
67965;SDS011;54749;47.850;9.002;2022-10-16T05:04:08;12.13;;;4.60;;
67965;SDS011;54749;47.850;9.002;2022-10-16T05:06:35;8.93;;;4.13;;
67965;SDS011;54749;47.850;9.002;2022-10-16T05:09:02;8.63;;;3.40;;
67965;SDS011;54749;47.850;9.002;2022-10-16T05:11:29;8.03;;;3.50;;
67965;SDS011;54749;47.850;9.002;2022-10-16T05:13:56;8.43;;;4.07;;
67965;SDS011;54749;47.850;9.002;2022-10-16T05:16:23;10.23;;;5.10;;
67965;SDS011;54749;47.850;9.002;2022-10-16T05:18:53;10.65;;;4.95;;
67965;SDS011;54749;47.850;9.002;2022-10-16T05:21:29;10.27;;;4.70;;
67965;SDS011;54749;47.850;9.002;2022-10-16T05:23:56;7.27;;;3.60;;
67965;SDS011;54749;47.850;9.002;2022-10-16T05:26:23;7.18;;;3.33;;
67965;SDS011;54749;47.850;9.002;2022-10-16T05:28:50;7.78;;;3.10;;
67965;SDS011;54749;47.850;9.002;2022-10-16T05:31:17;8.82;;;3.50;;
67965;SDS011;54749;47.850;9.002;2022-10-16T05:33:44;7.90;;;3.58;;
67965;SDS011;54749;47.850;9.002;2022-10-16T05:36:11;6.93;;;3.27;;
67965;SDS011;54749;47.850;9.002;2022-10-16T05:38:39;8.38;;;3.40;;
67965;SDS011;54749;47.850;9.002;2022-10-16T05:41:06;6.30;;;2.95;;
67965;SDS011;54749;47.850;9.002;2022-10-16T05:43:33;6.78;;;3.10;;
67965;SDS011;54749;47.850;9.002;2022-10-16T05:46:03;9.23;;;3.13;;
67965;SDS011;54749;47.850;9.002;2022-10-16T05:48:31;14.23;;;3.37;;
67965;SDS011;54749;47.850;9.002;2022-10-16T05:50:59;9.60;;;3.55;;
67965;SDS011;54749;47.850;9.002;2022-10-16T05:53:28;7.45;;;3.33;;
67965;SDS011;54749;47.850;9.002;2022-10-16T05:55:56;13.95;;;4.35;;
67965;SDS011;54749;47.850;9.002;2022-10-16T05:58:24;17.42;;;5.70;;
67965;SDS011;54749;47.850;9.002;2022-10-16T06:00:56;10.40;;;4.83;;
67965;SDS011;54749;47.850;9.002;2022-10-16T06:03:23;14.45;;;4.85;;
67965;SDS011;54749;47.850;9.002;2022-10-16T06:05:50;9.57;;;4.22;;
67965;SDS011;54749;47.850;9.002;2022-10-16T06:08:18;12.25;;;4.25;;
67965;SDS011;54749;47.850;9.002;2022-10-16T06:10:46;12.32;;;4.10;;
67965;SDS011;54749;47.850;9.002;2022-10-16T06:13:13;12.23;;;3.83;;
67965;SDS011;54749;47.850;9.002;2022-10-16T06:15:41;11.38;;;4.47;;
67965;SDS011;54749;47.850;9.002;2022-10-16T06:18:09;10.75;;;4.38;;
67965;SDS011;54749;47.850;9.002;2022-10-16T06:20:36;7.90;;;4.10;;
67965;SDS011;54749;47.850;9.002;2022-10-16T06:23:04;7.63;;;4.00;;
67965;SDS011;54749;47.850;9.002;2022-10-16T06:25:31;10.77;;;4.40;;
67965;SDS011;54749;47.850;9.002;2022-10-16T06:27:58;9.93;;;4.03;;
67965;SDS011;54749;47.850;9.002;2022-10-16T06:30:25;9.45;;;3.90;;
67965;SDS011;54749;47.850;9.002;2022-10-16T06:32:51;9.27;;;4.07;;
67965;SDS011;54749;47.850;9.002;2022-10-16T06:35:18;8.93;;;3.80;;
67965;SDS011;54749;47.850;9.002;2022-10-16T06:37:45;6.93;;;3.33;;
67965;SDS011;54749;47.850;9.002;2022-10-16T06:40:12;10.40;;;2.90;;
67965;SDS011;54749;47.850;9.002;2022-10-16T06:42:41;6.90;;;3.33;;
67965;SDS011;54749;47.850;9.002;2022-10-16T06:45:08;7.97;;;3.58;;
67965;SDS011;54749;47.850;9.002;2022-10-16T06:47:35;6.47;;;3.17;;
67965;SDS011;54749;47.850;9.002;2022-10-16T06:50:02;6.47;;;3.30;;
67965;SDS011;54749;47.850;9.002;2022-10-16T06:52:30;6.80;;;3.50;;
67965;SDS011;54749;47.850;9.002;2022-10-16T06:54:57;8.52;;;2.70;;
67965;SDS011;54749;47.850;9.002;2022-10-16T06:57:23;7.25;;;3.30;;
67965;SDS011;54749;47.850;9.002;2022-10-16T06:59:50;7.40;;;3.63;;
67965;SDS011;54749;47.850;9.002;2022-10-16T07:02:20;6.90;;;3.03;;
67965;SDS011;54749;47.850;9.002;2022-10-16T07:04:47;7.10;;;2.90;;
67965;SDS011;54749;47.850;9.002;2022-10-16T07:07:14;10.15;;;3.40;;
67965;SDS011;54749;47.850;9.002;2022-10-16T07:09:41;9.38;;;3.88;;
67965;SDS011;54749;47.850;9.002;2022-10-16T07:12:08;10.73;;;4.00;;
67965;SDS011;54749;47.850;9.002;2022-10-16T07:14:35;9.47;;;4.10;;
67965;SDS011;54749;47.850;9.002;2022-10-16T07:17:02;9.85;;;4.10;;
67965;SDS011;54749;47.850;9.002;2022-10-16T07:19:29;10.20;;;4.18;;
67965;SDS011;54749;47.850;9.002;2022-10-16T07:22:00;10.88;;;3.47;;
67965;SDS011;54749;47.850;9.002;2022-10-16T07:24:27;6.93;;;2.90;;
67965;SDS011;54749;47.850;9.002;2022-10-16T07:26:54;10.20;;;3.37;;
67965;SDS011;54749;47.850;9.002;2022-10-16T07:29:21;6.93;;;3.40;;
67965;SDS011;54749;47.850;9.002;2022-10-16T07:31:48;8.20;;;3.42;;
67965;SDS011;54749;47.850;9.002;2022-10-16T07:34:16;7.50;;;3.40;;
67965;SDS011;54749;47.850;9.002;2022-10-16T07:36:44;6.68;;;3.25;;
67965;SDS011;54749;47.850;9.002;2022-10-16T07:39:13;7.57;;;2.97;;
67965;SDS011;54749;47.850;9.002;2022-10-16T07:41:41;6.82;;;3.10;;
67965;SDS011;54749;47.850;9.002;2022-10-16T07:44:07;7.95;;;3.13;;
67965;SDS011;54749;47.850;9.002;2022-10-16T07:46:35;5.25;;;2.65;;
67965;SDS011;54749;47.850;9.002;2022-10-16T07:49:02;6.53;;;3.22;;
67965;SDS011;54749;47.850;9.002;2022-10-16T07:51:29;5.60;;;2.70;;
67965;SDS011;54749;47.850;9.002;2022-10-16T07:53:56;5.85;;;2.30;;
67965;SDS011;54749;47.850;9.002;2022-10-16T07:56:23;4.95;;;2.30;;
67965;SDS011;54749;47.850;9.002;2022-10-16T07:58:50;7.28;;;2.50;;
67965;SDS011;54749;47.850;9.002;2022-10-16T08:01:18;5.82;;;2.17;;
67965;SDS011;54749;47.850;9.002;2022-10-16T08:03:46;5.43;;;2.27;;
67965;SDS011;54749;47.850;9.002;2022-10-16T08:06:15;4.15;;;1.98;;
67965;SDS011;54749;47.850;9.002;2022-10-16T08:08:43;6.53;;;2.47;;
67965;SDS011;54749;47.850;9.002;2022-10-16T08:11:10;5.25;;;2.30;;
67965;SDS011;54749;47.850;9.002;2022-10-16T08:13:37;6.45;;;2.33;;
67965;SDS011;54749;47.850;9.002;2022-10-16T08:16:04;5.03;;;2.10;;
67965;SDS011;54749;47.850;9.002;2022-10-16T08:18:34;5.40;;;2.42;;
67965;SDS011;54749;47.850;9.002;2022-10-16T08:21:02;5.38;;;2.50;;
67965;SDS011;54749;47.850;9.002;2022-10-16T08:23:31;5.07;;;2.50;;
67965;SDS011;54749;47.850;9.002;2022-10-16T08:26:03;7.80;;;2.50;;
67965;SDS011;54749;47.850;9.002;2022-10-16T08:28:33;4.57;;;2.00;;
67965;SDS011;54749;47.850;9.002;2022-10-16T08:31:10;6.55;;;2.40;;
67965;SDS011;54749;47.850;9.002;2022-10-16T08:33:40;5.47;;;2.65;;
67965;SDS011;54749;47.850;9.002;2022-10-16T08:36:09;6.30;;;2.40;;
67965;SDS011;54749;47.850;9.002;2022-10-16T08:38:37;5.32;;;2.60;;
67965;SDS011;54749;47.850;9.002;2022-10-16T08:44:04;4.88;;;2.22;;
67965;SDS011;54749;47.850;9.002;2022-10-16T08:49:23;4.15;;;2.03;;
67965;SDS011;54749;47.850;9.002;2022-10-16T08:51:51;5.55;;;2.13;;
67965;SDS011;54749;47.850;9.002;2022-10-16T08:54:21;5.10;;;2.10;;
67965;SDS011;54749;47.850;9.002;2022-10-16T08:56:49;5.57;;;2.30;;
67965;SDS011;54749;47.850;9.002;2022-10-16T08:59:16;7.05;;;2.30;;
67965;SDS011;54749;47.850;9.002;2022-10-16T09:01:45;4.50;;;2.50;;
67965;SDS011;54749;47.850;9.002;2022-10-16T09:12:22;6.15;;;2.42;;
67965;SDS011;54749;47.850;9.002;2022-10-16T09:23:12;5.03;;;2.38;;
67965;SDS011;54749;47.850;9.002;2022-10-16T09:25:43;5.32;;;2.65;;
67965;SDS011;54749;47.850;9.002;2022-10-16T09:28:17;4.65;;;1.85;;
67965;SDS011;54749;47.850;9.002;2022-10-16T09:30:45;5.78;;;2.20;;
67965;SDS011;54749;47.850;9.002;2022-10-16T09:33:15;5.00;;;2.17;;
67965;SDS011;54749;47.850;9.002;2022-10-16T09:35:45;5.22;;;2.10;;
67965;SDS011;54749;47.850;9.002;2022-10-16T09:38:48;6.38;;;2.00;;
67965;SDS011;54749;47.850;9.002;2022-10-16T09:41:18;6.28;;;2.30;;
67965;SDS011;54749;47.850;9.002;2022-10-16T09:46:35;4.73;;;2.10;;
67965;SDS011;54749;47.850;9.002;2022-10-16T09:49:05;7.18;;;2.55;;
67965;SDS011;54749;47.850;9.002;2022-10-16T09:51:45;9.05;;;3.75;;
67965;SDS011;54749;47.850;9.002;2022-10-16T09:54:15;8.48;;;5.55;;
67965;SDS011;54749;47.850;9.002;2022-10-16T09:56:44;7.13;;;4.07;;
67965;SDS011;54749;47.850;9.002;2022-10-16T09:59:19;13.53;;;11.43;;
67965;SDS011;54749;47.850;9.002;2022-10-16T10:01:49;12.13;;;10.00;;
67965;SDS011;54749;47.850;9.002;2022-10-16T10:04:17;14.35;;;10.85;;
67965;SDS011;54749;47.850;9.002;2022-10-16T10:06:46;16.38;;;14.70;;
67965;SDS011;54749;47.850;9.002;2022-10-16T10:09:16;19.20;;;17.25;;
67965;SDS011;54749;47.850;9.002;2022-10-16T10:11:59;17.27;;;15.50;;
67965;SDS011;54749;47.850;9.002;2022-10-16T10:14:34;17.50;;;15.50;;
67965;SDS011;54749;47.850;9.002;2022-10-16T10:17:12;13.43;;;11.00;;
67965;SDS011;54749;47.850;9.002;2022-10-16T10:19:51;18.95;;;11.35;;
67965;SDS011;54749;47.850;9.002;2022-10-16T10:30:29;24.70;;;19.25;;
67965;SDS011;54749;47.850;9.002;2022-10-16T10:46:51;37.92;;;32.50;;
67965;SDS011;54749;47.850;9.002;2022-10-16T10:57:24;8.90;;;4.00;;
67965;SDS011;54749;47.850;9.002;2022-10-16T11:07:51;7.30;;;2.88;;
67965;SDS011;54749;47.850;9.002;2022-10-16T11:10:26;7.60;;;2.45;;
67965;SDS011;54749;47.850;9.002;2022-10-16T11:12:58;5.82;;;3.35;;
67965;SDS011;54749;47.850;9.002;2022-10-16T11:15:37;4.25;;;1.90;;
67965;SDS011;54749;47.850;9.002;2022-10-16T11:18:08;3.20;;;1.37;;
67965;SDS011;54749;47.850;9.002;2022-10-16T11:21:06;4.38;;;1.80;;
67965;SDS011;54749;47.850;9.002;2022-10-16T11:23:41;4.88;;;2.00;;
67965;SDS011;54749;47.850;9.002;2022-10-16T11:26:25;9.70;;;2.80;;
67965;SDS011;54749;47.850;9.002;2022-10-16T11:28:56;7.80;;;2.20;;
67965;SDS011;54749;47.850;9.002;2022-10-16T11:34:44;4.95;;;1.55;;
67965;SDS011;54749;47.850;9.002;2022-10-16T11:37:16;6.05;;;1.92;;
67965;SDS011;54749;47.850;9.002;2022-10-16T11:39:47;4.80;;;2.20;;
67965;SDS011;54749;47.850;9.002;2022-10-16T11:43:01;4.32;;;1.70;;
67965;SDS011;54749;47.850;9.002;2022-10-16T11:45:29;7.30;;;1.97;;
67965;SDS011;54749;47.850;9.002;2022-10-16T11:48:18;5.22;;;1.80;;
67965;SDS011;54749;47.850;9.002;2022-10-16T11:56:43;5.80;;;1.60;;
67965;SDS011;54749;47.850;9.002;2022-10-16T11:59:20;4.90;;;1.73;;
67965;SDS011;54749;47.850;9.002;2022-10-16T12:02:00;5.80;;;2.10;;
67965;SDS011;54749;47.850;9.002;2022-10-16T12:04:49;3.97;;;1.50;;
67965;SDS011;54749;47.850;9.002;2022-10-16T12:07:21;3.75;;;1.20;;
67965;SDS011;54749;47.850;9.002;2022-10-16T12:09:53;4.50;;;1.30;;
67965;SDS011;54749;47.850;9.002;2022-10-16T12:15:22;3.35;;;1.30;;
67965;SDS011;54749;47.850;9.002;2022-10-16T12:18:20;4.95;;;1.45;;
67965;SDS011;54749;47.850;9.002;2022-10-16T12:20:57;3.67;;;1.67;;
67965;SDS011;54749;47.850;9.002;2022-10-16T12:23:31;5.03;;;1.65;;
67965;SDS011;54749;47.850;9.002;2022-10-16T12:26:00;3.43;;;1.50;;
67965;SDS011;54749;47.850;9.002;2022-10-16T12:28:29;4.25;;;1.60;;
67965;SDS011;54749;47.850;9.002;2022-10-16T12:31:00;5.15;;;1.60;;
67965;SDS011;54749;47.850;9.002;2022-10-16T12:33:30;4.75;;;1.60;;
67965;SDS011;54749;47.850;9.002;2022-10-16T12:36:42;6.00;;;1.48;;
67965;SDS011;54749;47.850;9.002;2022-10-16T12:39:16;3.47;;;1.23;;
67965;SDS011;54749;47.850;9.002;2022-10-16T12:42:04;4.55;;;1.52;;
67965;SDS011;54749;47.850;9.002;2022-10-16T12:44:44;3.42;;;1.27;;
67965;SDS011;54749;47.850;9.002;2022-10-16T12:47:19;4.32;;;1.20;;
67965;SDS011;54749;47.850;9.002;2022-10-16T12:50:22;4.25;;;1.10;;
67965;SDS011;54749;47.850;9.002;2022-10-16T12:52:51;5.83;;;1.30;;
67965;SDS011;54749;47.850;9.002;2022-10-16T12:55:19;3.15;;;1.00;;
67965;SDS011;54749;47.850;9.002;2022-10-16T13:00:56;4.00;;;1.50;;
67965;SDS011;54749;47.850;9.002;2022-10-16T13:03:43;3.17;;;1.08;;
67965;SDS011;54749;47.850;9.002;2022-10-16T13:12:41;5.47;;;1.10;;
67965;SDS011;54749;47.850;9.002;2022-10-16T13:18:40;4.60;;;1.50;;
67965;SDS011;54749;47.850;9.002;2022-10-16T13:23:42;4.10;;;1.52;;
67965;SDS011;54749;47.850;9.002;2022-10-16T13:26:25;5.10;;;1.65;;
67965;SDS011;54749;47.850;9.002;2022-10-16T13:29:00;3.50;;;1.38;;
67965;SDS011;54749;47.850;9.002;2022-10-16T13:31:28;3.58;;;1.42;;
67965;SDS011;54749;47.850;9.002;2022-10-16T13:33:58;5.13;;;1.60;;
67965;SDS011;54749;47.850;9.002;2022-10-16T13:36:27;3.83;;;1.63;;
67965;SDS011;54749;47.850;9.002;2022-10-16T13:41:39;5.43;;;1.27;;
67965;SDS011;54749;47.850;9.002;2022-10-16T13:44:11;4.53;;;1.35;;
67965;SDS011;54749;47.850;9.002;2022-10-16T13:46:42;4.30;;;1.23;;
67965;SDS011;54749;47.850;9.002;2022-10-16T13:49:16;3.85;;;1.10;;
67965;SDS011;54749;47.850;9.002;2022-10-16T13:51:54;4.60;;;1.20;;
67965;SDS011;54749;47.850;9.002;2022-10-16T13:54:23;3.22;;;1.23;;
67965;SDS011;54749;47.850;9.002;2022-10-16T13:56:51;3.80;;;1.20;;
67965;SDS011;54749;47.850;9.002;2022-10-16T13:59:34;4.70;;;1.20;;
67965;SDS011;54749;47.850;9.002;2022-10-16T14:05:02;3.85;;;1.40;;
67965;SDS011;54749;47.850;9.002;2022-10-16T14:07:31;7.15;;;1.20;;
67965;SDS011;54749;47.850;9.002;2022-10-16T14:10:19;5.03;;;1.10;;
67965;SDS011;54749;47.850;9.002;2022-10-16T14:12:56;3.67;;;1.10;;
67965;SDS011;54749;47.850;9.002;2022-10-16T14:15:25;3.97;;;1.20;;
67965;SDS011;54749;47.850;9.002;2022-10-16T14:17:52;4.82;;;1.20;;
67965;SDS011;54749;47.850;9.002;2022-10-16T14:20:20;3.15;;;1.20;;
67965;SDS011;54749;47.850;9.002;2022-10-16T14:23:03;3.20;;;1.20;;
67965;SDS011;54749;47.850;9.002;2022-10-16T14:25:43;4.57;;;1.00;;
67965;SDS011;54749;47.850;9.002;2022-10-16T14:30:48;4.40;;;1.27;;
67965;SDS011;54749;47.850;9.002;2022-10-16T14:33:21;3.70;;;1.10;;
67965;SDS011;54749;47.850;9.002;2022-10-16T14:38:48;2.97;;;1.00;;
67965;SDS011;54749;47.850;9.002;2022-10-16T14:41:20;3.20;;;1.10;;
67965;SDS011;54749;47.850;9.002;2022-10-16T14:43:51;3.85;;;1.10;;
67965;SDS011;54749;47.850;9.002;2022-10-16T14:46:21;3.03;;;1.05;;
67965;SDS011;54749;47.850;9.002;2022-10-16T14:48:58;3.20;;;1.10;;
67965;SDS011;54749;47.850;9.002;2022-10-16T14:51:28;4.67;;;0.90;;
67965;SDS011;54749;47.850;9.002;2022-10-16T14:53:56;3.80;;;1.35;;
67965;SDS011;54749;47.850;9.002;2022-10-16T14:56:27;3.10;;;1.20;;
67965;SDS011;54749;47.850;9.002;2022-10-16T14:58:59;3.88;;;1.15;;
67965;SDS011;54749;47.850;9.002;2022-10-16T15:01:27;4.05;;;1.20;;
67965;SDS011;54749;47.850;9.002;2022-10-16T15:03:54;7.53;;;1.20;;
67965;SDS011;54749;47.850;9.002;2022-10-16T15:06:21;2.70;;;0.90;;
67965;SDS011;54749;47.850;9.002;2022-10-16T15:08:48;2.67;;;0.80;;
67965;SDS011;54749;47.850;9.002;2022-10-16T15:11:16;3.03;;;0.95;;
67965;SDS011;54749;47.850;9.002;2022-10-16T15:13:45;3.03;;;1.10;;
67965;SDS011;54749;47.850;9.002;2022-10-16T15:16:13;2.73;;;0.90;;
67965;SDS011;54749;47.850;9.002;2022-10-16T15:18:42;3.22;;;0.98;;
67965;SDS011;54749;47.850;9.002;2022-10-16T15:21:31;3.50;;;0.80;;
67965;SDS011;54749;47.850;9.002;2022-10-16T15:23:59;3.72;;;1.05;;
67965;SDS011;54749;47.850;9.002;2022-10-16T15:26:26;3.20;;;1.00;;
67965;SDS011;54749;47.850;9.002;2022-10-16T15:28:54;3.10;;;1.07;;
67965;SDS011;54749;47.850;9.002;2022-10-16T15:31:21;3.05;;;1.10;;
67965;SDS011;54749;47.850;9.002;2022-10-16T15:33:50;2.95;;;1.08;;
67965;SDS011;54749;47.850;9.002;2022-10-16T15:36:25;3.05;;;0.90;;
67965;SDS011;54749;47.850;9.002;2022-10-16T15:38:56;2.95;;;1.00;;
67965;SDS011;54749;47.850;9.002;2022-10-16T15:41:23;3.00;;;0.80;;
67965;SDS011;54749;47.850;9.002;2022-10-16T15:43:50;3.58;;;1.00;;
67965;SDS011;54749;47.850;9.002;2022-10-16T15:46:18;3.47;;;1.05;;
67965;SDS011;54749;47.850;9.002;2022-10-16T15:48:47;4.10;;;1.02;;
67965;SDS011;54749;47.850;9.002;2022-10-16T15:51:15;2.95;;;1.10;;
67965;SDS011;54749;47.850;9.002;2022-10-16T15:53:43;4.07;;;1.10;;
67965;SDS011;54749;47.850;9.002;2022-10-16T15:56:13;4.40;;;1.02;;
67965;SDS011;54749;47.850;9.002;2022-10-16T15:58:41;3.30;;;1.10;;
67965;SDS011;54749;47.850;9.002;2022-10-16T16:01:09;5.20;;;1.35;;
67965;SDS011;54749;47.850;9.002;2022-10-16T16:03:38;3.00;;;1.10;;
67965;SDS011;54749;47.850;9.002;2022-10-16T16:06:07;3.00;;;1.07;;
67965;SDS011;54749;47.850;9.002;2022-10-16T16:08:36;4.70;;;1.10;;
67965;SDS011;54749;47.850;9.002;2022-10-16T16:11:07;3.60;;;1.20;;
67965;SDS011;54749;47.850;9.002;2022-10-16T16:13:37;3.30;;;1.10;;
67965;SDS011;54749;47.850;9.002;2022-10-16T16:16:05;2.88;;;1.10;;
67965;SDS011;54749;47.850;9.002;2022-10-16T16:18:34;3.93;;;1.30;;
67965;SDS011;54749;47.850;9.002;2022-10-16T16:21:01;3.60;;;1.33;;
67965;SDS011;54749;47.850;9.002;2022-10-16T16:23:28;4.15;;;1.50;;
67965;SDS011;54749;47.850;9.002;2022-10-16T16:26:29;6.75;;;1.58;;
67965;SDS011;54749;47.850;9.002;2022-10-16T16:28:53;3.97;;;1.42;;
67965;SDS011;54749;47.850;9.002;2022-10-16T16:31:25;3.40;;;1.40;;
67965;SDS011;54749;47.850;9.002;2022-10-16T16:33:54;3.60;;;1.30;;
67965;SDS011;54749;47.850;9.002;2022-10-16T16:36:23;3.20;;;1.40;;
67965;SDS011;54749;47.850;9.002;2022-10-16T16:38:51;4.55;;;1.50;;
67965;SDS011;54749;47.850;9.002;2022-10-16T16:41:19;4.53;;;1.50;;
67965;SDS011;54749;47.850;9.002;2022-10-16T16:43:49;4.50;;;1.60;;
67965;SDS011;54749;47.850;9.002;2022-10-16T16:46:17;5.65;;;1.70;;
67965;SDS011;54749;47.850;9.002;2022-10-16T16:48:45;3.30;;;1.40;;
67965;SDS011;54749;47.850;9.002;2022-10-16T16:51:13;3.30;;;1.30;;
67965;SDS011;54749;47.850;9.002;2022-10-16T16:53:47;3.20;;;1.10;;
67965;SDS011;54749;47.850;9.002;2022-10-16T16:56:16;3.60;;;1.30;;
67965;SDS011;54749;47.850;9.002;2022-10-16T16:58:46;3.50;;;1.45;;
67965;SDS011;54749;47.850;9.002;2022-10-16T17:01:14;3.63;;;1.55;;
67965;SDS011;54749;47.850;9.002;2022-10-16T17:03:46;4.38;;;1.58;;